createdAt,value
2023-05-06T00:01:15.888Z,71.30
2023-05-06T00:03:42.817Z,77.30
2023-05-06T00:06:09.963Z,77.77
2023-05-06T00:08:36.958Z,70.70
2023-05-06T00:11:03.742Z,74.50
2023-05-06T00:13:30.501Z,70.77
2023-05-06T00:15:57.400Z,66.73
2023-05-06T00:18:24.163Z,69.80
2023-05-06T00:20:50.915Z,79.23
2023-05-06T00:23:17.649Z,78.57
2023-05-06T00:25:44.432Z,80.93
2023-05-06T00:28:11.171Z,85.37
2023-05-06T00:30:37.920Z,80.60
2023-05-06T00:33:04.771Z,85.83
2023-05-06T00:35:31.587Z,76.40
2023-05-06T00:38:06.676Z,71.50
2023-05-06T00:40:33.462Z,70.23
2023-05-06T00:43:00.200Z,68.50
2023-05-06T00:45:27.073Z,69.87
2023-05-06T00:47:54.313Z,68.20
2023-05-06T00:50:22.368Z,64.27
2023-05-06T00:52:49.886Z,64.53
2023-05-06T00:55:17.389Z,66.07
2023-05-06T00:57:44.224Z,70.63
2023-05-06T01:00:11.848Z,71.27
2023-05-06T01:02:47.131Z,71.00
2023-05-06T01:05:17.820Z,73.53
2023-05-06T01:08:17.683Z,73.00
2023-05-06T01:10:56.179Z,74.27
2023-05-06T01:13:56.361Z,74.80
2023-05-06T01:16:25.319Z,72.93
2023-05-06T01:18:53.589Z,72.00
2023-05-06T01:21:22.043Z,72.67
2023-05-06T01:23:57.964Z,72.30
2023-05-06T01:26:25.477Z,76.60
2023-05-06T01:28:52.902Z,72.27
2023-05-06T01:31:57.571Z,71.13
2023-05-06T01:34:38.905Z,72.87
2023-05-06T01:37:23.129Z,71.83
2023-05-06T01:39:51.873Z,74.37
2023-05-06T01:42:19.490Z,75.70
2023-05-06T01:44:48.842Z,70.37
2023-05-06T01:47:15.783Z,73.70
2023-05-06T01:49:42.847Z,72.93
2023-05-06T01:52:11.182Z,73.23
2023-05-06T01:54:37.955Z,75.10
2023-05-06T01:57:04.716Z,78.87
2023-05-06T01:59:32.375Z,76.63
2023-05-06T02:01:59.197Z,78.37
2023-05-06T02:04:26.094Z,80.53
2023-05-06T02:06:53.017Z,82.10
2023-05-06T02:09:20.565Z,83.00
2023-05-06T02:11:53.374Z,82.50
2023-05-06T02:14:20.159Z,83.53
2023-05-06T02:16:47.008Z,77.63
2023-05-06T02:19:14.847Z,82.07
2023-05-06T02:21:42.814Z,83.50
2023-05-06T02:24:09.576Z,81.83
2023-05-06T02:26:36.385Z,85.33
2023-05-06T02:29:04.253Z,83.50
2023-05-06T02:31:31.660Z,82.53
2023-05-06T02:33:58.475Z,83.47
2023-05-06T02:36:25.237Z,83.73
2023-05-06T02:38:54.493Z,82.87
2023-05-06T02:41:21.319Z,82.37
2023-05-06T02:43:48.110Z,83.83
2023-05-06T02:46:14.966Z,80.20
2023-05-06T02:48:42.003Z,80.33
2023-05-06T02:51:08.860Z,78.93
2023-05-06T02:53:35.940Z,79.40
2023-05-06T02:56:03.008Z,75.90
2023-05-06T02:58:29.741Z,80.60
2023-05-06T03:00:56.784Z,77.60
2023-05-06T03:03:23.571Z,75.17
2023-05-06T03:05:50.379Z,80.00
2023-05-06T03:08:17.194Z,79.47
2023-05-06T03:10:44.180Z,76.17
2023-05-06T03:13:11.330Z,80.17
2023-05-06T03:15:38.116Z,78.27
2023-05-06T03:18:04.974Z,81.27
2023-05-06T03:20:32.128Z,77.83
2023-05-06T03:23:00.287Z,79.27
2023-05-06T03:25:27.086Z,74.53
2023-05-06T03:27:55.065Z,76.07
2023-05-06T03:30:23.253Z,76.63
2023-05-06T03:32:56.773Z,75.13
2023-05-06T03:35:29.573Z,76.97
2023-05-06T03:37:58.915Z,77.23
2023-05-06T03:40:31.165Z,77.70
2023-05-06T03:42:58.355Z,78.83
2023-05-06T03:45:26.743Z,79.67
2023-05-06T03:47:54.506Z,83.17
2023-05-06T03:50:23.150Z,80.60
2023-05-06T03:52:52.001Z,80.63
2023-05-06T03:55:20.467Z,80.23
2023-05-06T03:57:48.147Z,82.03
2023-05-06T04:00:15.525Z,80.20
2023-05-06T04:02:49.440Z,82.83
2023-05-06T04:05:23.569Z,84.40
2023-05-06T04:07:50.946Z,80.27
2023-05-06T04:10:18.271Z,86.03
2023-05-06T04:12:48.934Z,82.83
2023-05-06T04:15:21.576Z,83.63
2023-05-06T04:17:49.034Z,85.17
2023-05-06T04:20:16.140Z,82.30
2023-05-06T04:22:42.965Z,80.07
2023-05-06T04:25:10.780Z,79.33
2023-05-06T04:27:38.521Z,78.17
2023-05-06T04:30:08.459Z,75.23
2023-05-06T04:32:38.836Z,79.20
2023-05-06T04:35:07.621Z,77.60
2023-05-06T04:37:35.106Z,78.30
2023-05-06T04:40:09.269Z,79.33
2023-05-06T04:42:38.870Z,77.90
2023-05-06T04:45:11.772Z,80.73
2023-05-06T04:47:41.163Z,81.23
2023-05-06T04:50:09.503Z,81.03
2023-05-06T04:52:36.508Z,77.63
2023-05-06T04:55:04.484Z,81.37
2023-05-06T04:57:34.267Z,78.73
2023-05-06T05:00:02.692Z,79.33
2023-05-06T05:02:29.866Z,79.17
2023-05-06T05:04:56.727Z,76.23
2023-05-06T05:07:23.676Z,79.73
2023-05-06T05:09:50.646Z,79.13
2023-05-06T05:12:17.436Z,71.57
2023-05-06T05:14:47.712Z,74.73
2023-05-06T05:17:15.496Z,73.63
2023-05-06T05:19:42.731Z,70.17
2023-05-06T05:22:11.165Z,68.37
2023-05-06T05:24:39.496Z,70.50
2023-05-06T05:27:06.254Z,71.80
2023-05-06T05:29:33.722Z,74.60
2023-05-06T05:32:02.949Z,77.40
2023-05-06T05:34:30.423Z,78.07
2023-05-06T05:36:58.089Z,77.10
2023-05-06T05:39:25.877Z,81.30
2023-05-06T05:41:53.366Z,81.33
2023-05-06T05:44:21.003Z,78.90
2023-05-06T05:46:48.533Z,74.67
2023-05-06T05:49:18.967Z,74.60
2023-05-06T05:51:45.871Z,74.20
2023-05-06T05:54:16.609Z,76.50
2023-05-06T05:56:43.405Z,76.90
2023-05-06T05:59:10.966Z,74.37
2023-05-06T06:01:38.180Z,72.43
2023-05-06T06:04:06.678Z,72.83
2023-05-06T06:06:33.596Z,72.43
2023-05-06T06:09:00.609Z,74.93
2023-05-06T06:11:28.985Z,75.57
2023-05-06T06:13:56.015Z,74.83
2023-05-06T06:16:22.993Z,75.60
2023-05-06T06:18:50.046Z,79.60
2023-05-06T06:21:18.017Z,77.67
2023-05-06T06:23:45.892Z,77.27
2023-05-06T06:26:12.812Z,77.23
2023-05-06T06:28:39.861Z,81.00
2023-05-06T06:31:06.636Z,77.37
2023-05-06T06:33:33.435Z,79.53
2023-05-06T06:36:00.484Z,80.23
2023-05-06T06:38:27.554Z,80.50
2023-05-06T06:40:54.482Z,78.17
2023-05-06T06:43:21.245Z,79.80
2023-05-06T06:45:48.264Z,80.07
2023-05-06T06:48:15.568Z,82.27
2023-05-06T06:50:42.863Z,80.23
2023-05-06T06:53:10.884Z,80.20
2023-05-06T06:55:37.775Z,82.87
2023-05-06T06:58:04.662Z,84.87
2023-05-06T07:00:31.524Z,83.53
2023-05-06T07:02:58.497Z,87.67
2023-05-06T07:05:27.036Z,90.17
2023-05-06T07:07:54.457Z,87.37
2023-05-06T07:10:21.904Z,81.37
2023-05-06T07:12:48.860Z,84.77
2023-05-06T07:15:15.714Z,82.40
2023-05-06T07:17:42.834Z,80.60
2023-05-06T07:20:10.412Z,77.17
2023-05-06T07:22:37.186Z,76.97
2023-05-06T07:25:04.208Z,73.60
2023-05-06T07:27:31.018Z,75.40
2023-05-06T07:29:57.891Z,79.43
2023-05-06T07:32:24.752Z,78.13
2023-05-06T07:34:51.513Z,78.50
2023-05-06T07:37:18.359Z,77.73
2023-05-06T07:39:45.497Z,83.47
2023-05-06T07:42:13.108Z,77.03
2023-05-06T07:44:40.341Z,75.83
2023-05-06T07:47:07.686Z,80.87
2023-05-06T07:49:35.251Z,81.27
2023-05-06T07:52:03.435Z,83.27
2023-05-06T07:54:31.691Z,87.23
2023-05-06T07:56:58.919Z,86.97
2023-05-06T07:59:25.736Z,92.83
2023-05-06T08:01:52.590Z,89.90
2023-05-06T08:04:19.431Z,96.67
2023-05-06T08:06:46.537Z,87.30
2023-05-06T08:09:22.333Z,90.53
2023-05-06T08:11:50.708Z,88.97
2023-05-06T08:14:17.601Z,90.73
2023-05-06T08:16:44.630Z,89.53
2023-05-06T08:19:11.505Z,92.10
2023-05-06T08:21:38.285Z,77.57
2023-05-06T08:24:05.179Z,79.70
2023-05-06T08:26:31.979Z,86.03
2023-05-06T08:28:59.596Z,82.17
2023-05-06T08:31:26.702Z,81.47
2023-05-06T08:33:54.800Z,87.50
2023-05-06T08:36:22.420Z,89.37
2023-05-06T08:38:50.879Z,87.57
2023-05-06T08:41:19.558Z,93.83
2023-05-06T08:43:48.484Z,94.50
2023-05-06T08:46:15.557Z,99.23
2023-05-06T08:48:42.606Z,93.33
2023-05-06T08:51:10.518Z,93.90
2023-05-06T08:53:40.316Z,93.23
2023-05-06T08:56:08.864Z,88.67
2023-05-06T08:58:39.596Z,84.27
2023-05-06T09:01:06.660Z,77.27
2023-05-06T09:03:33.685Z,72.63
2023-05-06T09:06:00.795Z,72.27
2023-05-06T09:08:27.653Z,79.80
2023-05-06T09:10:54.458Z,74.63
2023-05-06T09:13:21.266Z,82.33
2023-05-06T09:15:49.572Z,93.57
2023-05-06T09:18:17.069Z,91.37
2023-05-06T09:20:48.710Z,93.10
2023-05-06T09:23:17.643Z,88.30
2023-05-06T09:25:46.800Z,86.80
2023-05-06T09:28:14.618Z,83.83
2023-05-06T09:30:43.192Z,64.30
2023-05-06T09:33:10.803Z,66.07
2023-05-06T09:35:42.422Z,72.33
2023-05-06T09:38:10.523Z,49.03
2023-05-06T09:40:38.715Z,40.53
2023-05-06T09:43:06.096Z,44.33
2023-05-06T09:45:33.084Z,44.07
2023-05-06T09:48:01.068Z,41.50
2023-05-06T09:50:28.621Z,40.07
2023-05-06T09:52:56.323Z,42.77
2023-05-06T09:55:26.586Z,45.67
2023-05-06T09:57:54.712Z,44.90
2023-05-06T10:00:27.892Z,48.53
2023-05-06T10:02:55.052Z,51.57
2023-05-06T10:05:24.860Z,56.57
2023-05-06T10:07:53.426Z,55.93
2023-05-06T10:10:22.858Z,54.67
2023-05-06T10:12:51.742Z,50.27
2023-05-06T10:15:18.555Z,54.97
2023-05-06T10:17:48.152Z,55.20
2023-05-06T10:20:16.028Z,56.93
2023-05-06T10:22:57.861Z,32.13
2023-05-06T10:25:45.695Z,28.57
2023-05-06T10:28:18.178Z,23.80
2023-05-06T10:30:59.402Z,46.37
2023-05-06T10:33:27.901Z,55.83
2023-05-06T10:36:11.667Z,52.40
2023-05-06T10:38:43.385Z,53.90
2023-05-06T10:41:10.784Z,51.37
2023-05-06T10:43:45.269Z,53.27
2023-05-06T10:46:18.580Z,41.33
2023-05-06T10:49:11.239Z,46.40
2023-05-06T10:51:42.945Z,41.40
2023-05-06T10:54:18.960Z,53.23
2023-05-06T10:56:48.822Z,54.20
2023-05-06T10:59:25.722Z,33.17
2023-05-06T11:02:02.747Z,34.20
2023-05-06T11:04:31.279Z,33.47
2023-05-06T11:07:12.818Z,25.23
2023-05-06T11:09:58.978Z,27.67
2023-05-06T11:12:51.487Z,36.20
2023-05-06T11:15:40.680Z,28.57
2023-05-06T11:18:29.392Z,25.63
2023-05-06T11:21:04.967Z,28.50
2023-05-06T11:23:49.472Z,26.43
2023-05-06T11:26:16.673Z,23.17
2023-05-06T11:28:50.398Z,27.03
2023-05-06T11:31:17.796Z,26.57
2023-05-06T11:33:49.651Z,25.90
2023-05-06T11:36:18.519Z,23.57
2023-05-06T11:38:52.671Z,26.40
2023-05-06T11:41:19.996Z,21.73
2023-05-06T11:43:49.861Z,24.47
2023-05-06T11:46:18.900Z,24.93
2023-05-06T11:48:46.085Z,24.27
2023-05-06T11:51:12.883Z,19.90
2023-05-06T11:53:39.745Z,21.23
2023-05-06T11:56:07.324Z,24.00
2023-05-06T11:58:34.320Z,24.97
2023-05-06T12:01:03.207Z,22.63
2023-05-06T12:03:31.888Z,22.53
2023-05-06T12:05:59.777Z,22.87
2023-05-06T12:08:32.581Z,25.23
2023-05-06T12:11:07.970Z,25.40
2023-05-06T12:13:40.546Z,24.47
2023-05-06T12:16:08.461Z,24.80
2023-05-06T12:18:35.842Z,25.90
2023-05-06T12:21:03.014Z,27.10
2023-05-06T12:23:29.896Z,28.17
2023-05-06T12:26:05.435Z,26.90
2023-05-06T12:28:35.063Z,36.57
2023-05-06T12:31:21.567Z,31.00
2023-05-06T12:33:50.062Z,26.53
2023-05-06T12:36:18.247Z,26.20
2023-05-06T12:38:59.370Z,26.57
2023-05-06T12:41:42.346Z,29.07
2023-05-06T12:44:37.914Z,30.50
2023-05-06T12:47:18.071Z,26.93
2023-05-06T12:49:52.046Z,28.40
2023-05-06T12:52:24.017Z,29.87
2023-05-06T12:54:54.547Z,25.97
2023-05-06T12:57:22.046Z,27.57
2023-05-06T12:59:49.520Z,31.17
2023-05-06T13:02:16.495Z,27.00
2023-05-06T13:04:44.280Z,24.47
2023-05-06T13:07:12.157Z,28.97
2023-05-06T13:09:38.981Z,33.00
2023-05-06T13:12:07.133Z,23.63
2023-05-06T13:14:33.990Z,30.57
2023-05-06T13:17:01.324Z,21.97
2023-05-06T13:19:32.722Z,21.00
2023-05-06T13:22:00.707Z,24.77
2023-05-06T13:24:27.975Z,24.27
2023-05-06T13:26:56.362Z,23.33
2023-05-06T13:29:23.766Z,21.20
2023-05-06T13:31:51.556Z,21.57
2023-05-06T13:34:18.639Z,20.43
2023-05-06T13:36:46.676Z,19.70
2023-05-06T13:39:13.835Z,21.00
2023-05-06T13:41:40.815Z,21.53
2023-05-06T13:44:07.750Z,20.70
2023-05-06T13:46:34.814Z,20.87
2023-05-06T13:49:01.680Z,21.13
2023-05-06T13:51:30.714Z,20.07
2023-05-06T13:53:57.864Z,19.53
2023-05-06T13:56:24.687Z,21.57
2023-05-06T13:58:53.187Z,21.43
2023-05-06T14:01:24.379Z,20.13
2023-05-06T14:03:51.376Z,20.20
2023-05-06T14:06:18.724Z,21.33
2023-05-06T14:08:46.095Z,21.20
2023-05-06T14:11:13.365Z,19.27
2023-05-06T14:13:40.783Z,21.27
2023-05-06T14:16:07.855Z,20.47
2023-05-06T14:18:34.782Z,18.90
2023-05-06T14:21:01.815Z,19.13
2023-05-06T14:23:28.730Z,19.33
2023-05-06T14:25:55.728Z,17.73
2023-05-06T14:28:22.534Z,20.57
2023-05-06T14:30:50.979Z,19.37
2023-05-06T14:33:18.038Z,19.40
2023-05-06T14:35:46.141Z,20.43
2023-05-06T14:38:13.029Z,18.50
2023-05-06T14:40:39.885Z,21.13
2023-05-06T14:43:07.640Z,19.33
2023-05-06T14:45:35.889Z,19.47
2023-05-06T14:48:03.010Z,20.97
2023-05-06T14:50:31.194Z,19.53
2023-05-06T14:52:58.277Z,20.20
2023-05-06T14:55:25.803Z,20.27
2023-05-06T14:57:52.889Z,19.83
2023-05-06T15:00:20.524Z,20.37
2023-05-06T15:02:47.588Z,20.60
2023-05-06T15:05:15.143Z,19.40
2023-05-06T15:07:42.269Z,19.30
2023-05-06T15:10:09.577Z,18.63
2023-05-06T15:12:37.376Z,18.57
2023-05-06T15:15:05.242Z,21.53
2023-05-06T15:17:32.658Z,18.53
2023-05-06T15:19:59.767Z,19.30
2023-05-06T15:22:26.702Z,20.47
2023-05-06T15:24:53.483Z,19.97
2023-05-06T15:27:20.272Z,20.83
2023-05-06T15:29:47.102Z,18.70
2023-05-06T15:32:13.925Z,19.47
2023-05-06T15:34:40.782Z,20.53
2023-05-06T15:37:08.103Z,21.50
2023-05-06T15:39:39.277Z,20.10
2023-05-06T15:42:06.372Z,20.87
2023-05-06T15:44:33.921Z,22.23
2023-05-06T15:47:00.862Z,19.93
2023-05-06T15:52:00.549Z,20.13
2023-05-06T15:54:28.598Z,21.40
2023-05-06T15:56:56.328Z,19.87
2023-05-06T15:59:23.599Z,22.20
2023-05-06T16:02:25.449Z,21.87
2023-05-06T16:04:37.550Z,22.40
2023-05-06T16:07:04.609Z,19.67
2023-05-06T16:09:31.391Z,21.03
2023-05-06T16:11:58.251Z,21.73
2023-05-06T16:14:25.232Z,19.50
2023-05-06T16:16:52.176Z,21.37
2023-05-06T16:19:19.175Z,22.17
2023-05-06T16:21:45.940Z,19.83
2023-05-06T16:24:12.710Z,19.83
2023-05-06T16:26:39.756Z,22.83
2023-05-06T16:29:06.789Z,20.27
2023-05-06T16:31:34.034Z,19.30
2023-05-06T16:34:01.261Z,20.37
2023-05-06T16:36:28.691Z,19.53
2023-05-06T16:38:55.643Z,19.43
2023-05-06T16:41:22.458Z,21.03
2023-05-06T16:43:49.762Z,20.30
2023-05-06T16:46:16.623Z,19.80
2023-05-06T16:48:43.598Z,19.80
2023-05-06T16:51:12.200Z,19.63
2023-05-06T16:53:39.201Z,20.93
2023-05-06T16:56:06.441Z,19.03
2023-05-06T16:58:33.536Z,18.53
2023-05-06T17:01:00.514Z,19.87
2023-05-06T17:03:27.475Z,18.87
2023-05-06T17:05:54.470Z,21.00
2023-05-06T17:08:22.102Z,20.60
2023-05-06T17:10:51.164Z,22.97
2023-05-06T17:13:18.103Z,26.43
2023-05-06T17:15:45.030Z,27.47
2023-05-06T17:18:12.505Z,23.37
2023-05-06T17:20:51.649Z,20.90
2023-05-06T17:23:21.878Z,20.80
2023-05-06T17:25:48.866Z,20.43
2023-05-06T17:28:16.894Z,19.10
2023-05-06T17:30:45.339Z,19.50
2023-05-06T17:33:12.235Z,19.77
2023-05-06T17:35:39.346Z,20.33
2023-05-06T17:38:06.097Z,19.30
2023-05-06T17:40:32.955Z,19.87
2023-05-06T17:42:59.739Z,19.43
2023-05-06T17:45:28.364Z,21.57
2023-05-06T17:47:56.357Z,32.53
2023-05-06T17:50:23.411Z,22.27
2023-05-06T17:52:52.345Z,28.43
2023-05-06T17:55:21.521Z,33.43
2023-05-06T17:57:48.918Z,33.63
2023-05-06T18:00:17.169Z,49.40
2023-05-06T18:02:44.732Z,53.50
2023-05-06T18:05:12.064Z,50.83
2023-05-06T18:07:39.475Z,46.67
2023-05-06T18:10:07.093Z,45.43
2023-05-06T18:12:34.160Z,41.50
2023-05-06T18:15:01.390Z,40.90
2023-05-06T18:17:28.365Z,38.53
2023-05-06T18:19:55.521Z,38.90
2023-05-06T18:22:22.835Z,36.73
2023-05-06T18:24:54.798Z,36.83
2023-05-06T18:27:22.290Z,38.50
2023-05-06T18:29:49.119Z,39.40
2023-05-06T18:32:15.972Z,45.13
2023-05-06T18:34:42.715Z,46.60
2023-05-06T18:37:09.598Z,49.07
2023-05-06T18:39:41.481Z,49.13
2023-05-06T18:42:08.742Z,48.87
2023-05-06T18:44:35.738Z,49.33
2023-05-06T18:47:02.707Z,47.97
2023-05-06T18:49:30.901Z,47.97
2023-05-06T18:51:57.704Z,48.80
2023-05-06T18:54:25.017Z,48.40
2023-05-06T18:56:52.124Z,47.93
2023-05-06T18:59:19.734Z,46.33
2023-05-06T19:01:46.825Z,44.80
2023-05-06T19:04:13.819Z,45.23
2023-05-06T19:06:41.004Z,43.93
2023-05-06T19:09:08.134Z,43.07
2023-05-06T19:11:35.390Z,43.07
2023-05-06T19:14:02.459Z,45.23
2023-05-06T19:16:29.482Z,44.80
2023-05-06T19:18:56.303Z,43.57
2023-05-06T19:21:23.151Z,43.53
2023-05-06T19:23:50.164Z,43.10
2023-05-06T19:26:17.029Z,42.80
2023-05-06T19:28:43.877Z,44.43
2023-05-06T19:31:11.603Z,43.73
2023-05-06T19:33:39.302Z,42.80
2023-05-06T19:36:06.821Z,43.23
2023-05-06T19:38:34.178Z,43.07
2023-05-06T19:41:01.271Z,43.13
2023-05-06T19:43:28.123Z,43.83
2023-05-06T19:45:55.033Z,42.20
2023-05-06T19:48:23.818Z,43.17
2023-05-06T19:50:51.528Z,43.43
2023-05-06T19:53:18.335Z,42.67
2023-05-06T19:55:45.404Z,43.10
2023-05-06T19:58:14.130Z,42.20
2023-05-06T20:00:41.107Z,43.23
2023-05-06T20:03:08.929Z,44.30
2023-05-06T20:05:36.183Z,42.80
2023-05-06T20:08:03.129Z,43.73
2023-05-06T20:10:30.214Z,42.80
2023-05-06T20:12:58.020Z,43.10
2023-05-06T20:15:26.531Z,41.27
2023-05-06T20:17:53.404Z,43.30
2023-05-06T20:20:20.446Z,42.57
2023-05-06T20:22:47.343Z,43.73
2023-05-06T20:25:18.809Z,43.80
2023-05-06T20:27:46.371Z,44.63
2023-05-06T20:30:13.328Z,44.33
2023-05-06T20:32:41.075Z,43.47
2023-05-06T20:35:08.853Z,43.80
2023-05-06T20:37:36.056Z,42.80
2023-05-06T20:40:04.835Z,44.70
2023-05-06T20:42:31.964Z,42.63
2023-05-06T20:45:00.042Z,43.00
2023-05-06T20:47:27.296Z,42.43
2023-05-06T20:49:54.933Z,42.97
2023-05-06T20:52:22.103Z,42.50
2023-05-06T20:54:49.350Z,41.63
2023-05-06T20:57:17.246Z,42.40
2023-05-06T20:59:44.375Z,44.47
2023-05-06T21:02:11.511Z,44.33
2023-05-06T21:04:38.458Z,43.27
2023-05-06T21:07:05.523Z,43.50
2023-05-06T21:09:32.359Z,43.30
2023-05-06T21:11:59.232Z,43.10
2023-05-06T21:14:27.139Z,42.80
2023-05-06T21:16:53.922Z,41.77
2023-05-06T21:19:21.055Z,43.47
2023-05-06T21:21:48.382Z,43.57
2023-05-06T21:24:15.479Z,42.53
2023-05-06T21:26:42.373Z,45.57
2023-05-06T21:29:09.379Z,45.67
2023-05-06T21:31:36.628Z,44.43
2023-05-06T21:34:04.327Z,44.57
2023-05-06T21:36:31.270Z,43.30
2023-05-06T21:39:10.415Z,43.33
2023-05-06T21:41:37.593Z,42.27
2023-05-06T21:44:05.346Z,41.87
2023-05-06T21:46:32.830Z,40.40
2023-05-06T21:49:00.337Z,42.57
2023-05-06T21:51:29.223Z,43.53
2023-05-06T21:53:56.078Z,44.30
2023-05-06T21:56:23.044Z,44.50
2023-05-06T21:58:51.065Z,43.20
2023-05-06T22:01:18.127Z,43.10
2023-05-06T22:03:46.019Z,43.50
2023-05-06T22:06:13.173Z,42.13
2023-05-06T22:08:43.657Z,42.30
2023-05-06T22:11:10.921Z,43.07
2023-05-06T22:13:37.828Z,44.00
2023-05-06T22:16:05.006Z,43.90
2023-05-06T22:18:32.092Z,43.67
2023-05-06T22:20:59.088Z,43.20
2023-05-06T22:23:27.809Z,41.90
2023-05-06T22:25:54.684Z,43.37
2023-05-06T22:28:21.673Z,44.13
2023-05-06T22:30:48.584Z,44.80
2023-05-06T22:33:15.747Z,41.40
2023-05-06T22:35:42.847Z,43.63
2023-05-06T22:38:09.713Z,45.60
2023-05-06T22:40:36.606Z,45.13
2023-05-06T22:43:03.612Z,43.80
2023-05-06T22:45:30.445Z,42.37
2023-05-06T22:47:57.384Z,42.97
2023-05-06T22:50:24.986Z,44.93
2023-05-06T22:52:52.206Z,45.57
2023-05-06T22:55:19.062Z,47.07
2023-05-06T22:57:49.805Z,48.00
2023-05-06T23:00:19.786Z,44.87
2023-05-06T23:02:46.674Z,47.53
2023-05-06T23:05:13.796Z,47.03
2023-05-06T23:07:41.025Z,46.30
2023-05-06T23:10:08.379Z,47.23
2023-05-06T23:12:35.846Z,46.87
2023-05-06T23:15:03.018Z,46.80
2023-05-06T23:17:29.809Z,46.40
2023-05-06T23:19:58.947Z,47.17
2023-05-06T23:22:26.645Z,48.63
2023-05-06T23:24:53.864Z,46.80
2023-05-06T23:27:20.813Z,45.40
2023-05-06T23:29:47.732Z,45.17
2023-05-06T23:32:14.509Z,46.57
2023-05-06T23:34:41.354Z,46.37
2023-05-06T23:37:08.338Z,45.67
2023-05-06T23:39:35.571Z,46.57
2023-05-06T23:42:03.256Z,44.90
2023-05-06T23:44:30.025Z,45.00
2023-05-06T23:46:56.852Z,45.97
2023-05-06T23:49:23.756Z,44.23
2023-05-06T23:51:50.594Z,42.60
2023-05-06T23:54:17.406Z,43.70
2023-05-06T23:56:44.816Z,42.00
2023-05-06T23:59:11.695Z,43.23
